createdAt,value
2023-10-11T00:00:03.557Z,20
2023-10-11T00:02:34.849Z,20
2023-10-11T00:05:05.842Z,20
2023-10-11T00:07:34.593Z,20
2023-10-11T00:10:05.475Z,20
2023-10-11T00:12:36.538Z,20
2023-10-11T00:15:08.038Z,20
2023-10-11T00:17:39.149Z,20
2023-10-11T00:20:10.023Z,20
2023-10-11T00:22:40.938Z,20
2023-10-11T00:25:12.189Z,20
2023-10-11T00:27:43.051Z,20
2023-10-11T00:30:14.141Z,20
2023-10-11T00:32:45.097Z,20
2023-10-11T00:35:16.125Z,21
2023-10-11T00:37:47.051Z,20
2023-10-11T00:40:17.904Z,20
2023-10-11T00:42:48.997Z,20
2023-10-11T00:45:20.248Z,20
2023-10-11T00:47:51.098Z,21
2023-10-11T00:50:22.137Z,24
2023-10-11T00:52:53.271Z,24
2023-10-11T00:55:24.368Z,24
2023-10-11T00:57:55.018Z,22
2023-10-11T01:00:26.155Z,24
2023-10-11T01:02:57.201Z,20
2023-10-11T01:05:28.088Z,20
2023-10-11T01:07:58.808Z,20
2023-10-11T01:10:29.084Z,19
2023-10-11T01:13:00.253Z,20
2023-10-11T01:15:31.609Z,20
2023-10-11T01:18:02.660Z,20
2023-10-11T01:20:33.218Z,20
2023-10-11T01:23:04.484Z,19
2023-10-11T01:25:35.693Z,16
2023-10-11T01:28:06.554Z,16
2023-10-11T01:30:37.440Z,20
2023-10-11T01:33:08.847Z,16
2023-10-11T01:35:37.479Z,20
2023-10-11T01:38:08.693Z,16
2023-10-11T01:40:39.873Z,18
2023-10-11T01:43:10.819Z,16
2023-10-11T01:45:43.666Z,17
2023-10-11T01:48:14.615Z,16
2023-10-11T01:50:44.166Z,20
2023-10-11T01:53:15.157Z,20
2023-10-11T01:55:46.378Z,16
2023-10-11T01:58:17.864Z,16
2023-10-11T02:00:49.352Z,16
2023-10-11T02:03:20.647Z,16
2023-10-11T02:05:51.945Z,16
2023-10-11T02:08:23.111Z,16
2023-10-11T02:10:54.266Z,16
2023-10-11T02:13:25.595Z,16
2023-10-11T02:15:56.197Z,18
2023-10-11T02:18:27.468Z,16
2023-10-11T02:20:58.837Z,20
2023-10-11T02:23:30.170Z,16
2023-10-11T02:26:00.883Z,20
2023-10-11T02:28:31.392Z,16
2023-10-11T02:31:02.072Z,20
2023-10-11T02:33:33.754Z,16
2023-10-11T02:36:04.909Z,20
2023-10-11T02:38:35.861Z,20
2023-10-11T02:41:06.803Z,17
2023-10-11T02:43:39.746Z,20
2023-10-11T02:46:08.845Z,16
2023-10-11T02:48:39.894Z,19
2023-10-11T02:51:11.263Z,20
2023-10-11T02:53:42.644Z,16
2023-10-11T02:56:13.728Z,18
2023-10-11T02:58:44.415Z,18
2023-10-11T03:01:21.121Z,20
2023-10-11T03:03:46.904Z,16
2023-10-11T03:06:17.969Z,19
2023-10-11T03:08:49.091Z,19
2023-10-11T03:11:19.886Z,20
2023-10-11T03:13:51.223Z,20
2023-10-11T03:16:23.004Z,16
2023-10-11T03:18:53.498Z,17
2023-10-11T03:21:24.540Z,20
2023-10-11T03:23:55.031Z,17
2023-10-11T03:26:26.261Z,20
2023-10-11T03:28:57.977Z,20
2023-10-11T03:31:29.167Z,20
2023-10-11T03:34:00.152Z,16
2023-10-11T03:36:31.171Z,20
2023-10-11T03:39:02.275Z,18
2023-10-11T03:41:33.374Z,16
2023-10-11T03:44:04.462Z,19
2023-10-11T03:46:35.473Z,17
2023-10-11T03:49:06.525Z,16
2023-10-11T03:51:35.181Z,20
2023-10-11T03:54:06.055Z,20
2023-10-11T03:56:37.264Z,20
2023-10-11T03:59:08.148Z,20
2023-10-11T04:01:39.310Z,20
2023-10-11T04:04:10.106Z,20
2023-10-11T04:06:40.987Z,20
2023-10-11T04:09:11.542Z,20
2023-10-11T04:11:42.444Z,20
2023-10-11T04:14:13.247Z,20
2023-10-11T04:16:44.524Z,20
2023-10-11T04:19:16.008Z,23
2023-10-11T04:21:46.623Z,24
2023-10-11T04:24:17.770Z,26
2023-10-11T04:26:49.142Z,24
2023-10-11T04:29:20.689Z,24
2023-10-11T04:31:51.705Z,24
2023-10-11T04:34:22.976Z,24
2023-10-11T04:36:54.523Z,24
2023-10-11T04:39:25.868Z,24
2023-10-11T04:41:57.014Z,20
2023-10-11T04:44:28.463Z,21
2023-10-11T04:47:00.417Z,21
2023-10-11T04:49:31.331Z,20
2023-10-11T04:52:02.185Z,20
2023-10-11T04:54:33.104Z,25
2023-10-11T04:57:03.802Z,20
2023-10-11T04:59:35.068Z,24
2023-10-11T05:02:06.481Z,24
2023-10-11T05:04:37.044Z,24
2023-10-11T05:07:07.564Z,24
2023-10-11T05:09:38.145Z,26
2023-10-11T05:12:08.763Z,23
2023-10-11T05:14:39.465Z,24
2023-10-11T05:17:09.801Z,24
2023-10-11T05:19:38.769Z,28
2023-10-11T05:22:09.607Z,26
2023-10-11T05:24:40.084Z,24
2023-10-11T05:27:11.481Z,24
2023-10-11T05:29:42.683Z,24
2023-10-11T05:32:13.849Z,24
2023-10-11T05:34:44.993Z,24
2023-10-11T05:37:16.103Z,24
2023-10-11T05:39:47.027Z,20
2023-10-11T05:42:18.013Z,24
2023-10-11T05:44:49.283Z,24
2023-10-11T05:47:20.297Z,24
2023-10-11T05:49:51.176Z,24
2023-10-11T05:52:22.120Z,24
2023-10-11T05:54:53.148Z,24
2023-10-11T05:57:24.000Z,24
2023-10-11T05:59:53.148Z,22
2023-10-11T06:02:24.020Z,24
2023-10-11T06:04:55.188Z,20
2023-10-11T06:07:25.933Z,22
2023-10-11T06:09:56.895Z,20
2023-10-11T06:12:27.919Z,20
2023-10-11T06:14:58.937Z,24
2023-10-11T06:17:30.252Z,21
2023-10-11T06:20:01.640Z,23
2023-10-11T06:22:33.009Z,20
2023-10-11T06:25:03.767Z,24
2023-10-11T06:27:34.359Z,23
2023-10-11T06:30:04.825Z,20
2023-10-11T06:32:36.089Z,20
2023-10-11T06:35:07.745Z,20
2023-10-11T06:37:39.156Z,20
2023-10-11T06:40:09.812Z,20
2023-10-11T06:42:41.061Z,20
2023-10-11T06:45:11.823Z,20
2023-10-11T06:47:42.912Z,24
2023-10-11T06:50:13.450Z,20
2023-10-11T06:52:44.415Z,19
2023-10-11T06:55:16.093Z,18
2023-10-11T06:57:46.926Z,24
2023-10-11T07:00:17.262Z,20
2023-10-11T07:02:48.416Z,20
2023-10-11T07:05:19.291Z,24
2023-10-11T07:07:50.270Z,28
2023-10-11T07:10:20.871Z,20
2023-10-11T07:12:51.089Z,20
2023-10-11T07:15:21.389Z,20
2023-10-11T07:17:51.716Z,20
2023-10-11T07:20:21.762Z,20
2023-10-11T07:22:52.676Z,20
2023-10-11T07:25:23.314Z,21
2023-10-11T07:27:54.224Z,20
2023-10-11T07:30:24.715Z,24
2023-10-11T07:32:55.870Z,20
2023-10-11T07:35:26.244Z,24
2023-10-11T07:37:56.468Z,20
2023-10-11T07:40:26.741Z,20
2023-10-11T07:42:57.670Z,20
2023-10-11T07:45:28.628Z,20
2023-10-11T07:47:59.450Z,20
2023-10-11T07:50:30.143Z,19
2023-10-11T07:53:00.615Z,20
2023-10-11T07:55:31.539Z,20
2023-10-11T07:58:02.320Z,19
2023-10-11T08:00:39.258Z,20
2023-10-11T08:03:10.737Z,20
2023-10-11T08:05:41.390Z,20
2023-10-11T08:08:12.378Z,20
2023-10-11T08:10:43.167Z,20
2023-10-11T08:13:14.395Z,20
2023-10-11T08:15:47.931Z,20
2023-10-11T08:18:18.922Z,24
2023-10-11T08:20:49.638Z,20
2023-10-11T08:23:18.697Z,20
2023-10-11T08:25:49.634Z,20
2023-10-11T08:28:20.190Z,20
2023-10-11T08:30:51.435Z,20
2023-10-11T08:33:22.398Z,20
2023-10-11T08:35:53.291Z,23
2023-10-11T08:38:24.131Z,20
2023-10-11T08:40:54.903Z,20
2023-10-11T08:43:25.891Z,20
2023-10-11T08:45:56.756Z,18
2023-10-11T08:48:27.863Z,16
2023-10-11T08:50:56.605Z,20
2023-10-11T08:53:27.190Z,20
2023-10-11T08:55:58.495Z,16
2023-10-11T09:01:03.233Z,20
2023-10-11T09:03:34.816Z,20
2023-10-11T09:06:09.384Z,16
2023-10-11T09:08:39.396Z,20
2023-10-11T09:11:10.179Z,16
2023-10-11T09:13:41.047Z,20
2023-10-11T09:16:12.274Z,20
2023-10-11T09:18:43.296Z,16
2023-10-11T09:21:13.937Z,16
2023-10-11T09:23:44.903Z,20
2023-10-11T09:26:20.008Z,20
2023-10-11T09:28:46.892Z,18
2023-10-11T09:31:18.100Z,16
2023-10-11T09:33:50.177Z,16
2023-10-11T09:36:20.985Z,16
2023-10-11T09:38:51.804Z,15
2023-10-11T09:41:22.816Z,8
2023-10-11T09:43:53.632Z,12
2023-10-11T09:46:22.297Z,13
2023-10-11T09:48:53.120Z,8
2023-10-11T09:51:26.987Z,12
2023-10-11T09:53:57.983Z,12
2023-10-11T09:56:28.843Z,16
2023-10-11T09:58:59.683Z,14
2023-10-11T10:01:30.839Z,12
2023-10-11T10:04:01.656Z,16
2023-10-11T10:06:32.597Z,12
2023-10-11T10:09:03.789Z,8
2023-10-11T10:11:34.894Z,12
2023-10-11T10:14:05.745Z,12
2023-10-11T10:16:36.736Z,8
2023-10-11T10:19:07.705Z,12
2023-10-11T10:21:39.725Z,12
2023-10-11T10:24:10.793Z,12
2023-10-11T10:26:40.046Z,8
2023-10-11T10:29:10.743Z,12
2023-10-11T10:31:41.095Z,8
2023-10-11T10:34:12.152Z,8
2023-10-11T10:36:43.287Z,4
2023-10-11T10:39:14.613Z,4
2023-10-11T10:41:45.652Z,8
2023-10-11T10:44:16.829Z,8
2023-10-11T10:46:47.516Z,8
2023-10-11T10:49:18.641Z,8
2023-10-11T10:51:49.784Z,8
2023-10-11T10:54:20.754Z,8
2023-10-11T10:56:51.363Z,8
2023-10-11T10:59:22.705Z,8
2023-10-11T11:01:57.215Z,8
2023-10-11T11:04:28.125Z,8
2023-10-11T11:06:59.112Z,8
2023-10-11T11:09:30.084Z,8
2023-10-11T11:12:01.470Z,7
2023-10-11T11:14:32.432Z,8
2023-10-11T11:17:03.376Z,8
2023-10-11T11:19:34.318Z,8
2023-10-11T11:22:06.519Z,8
2023-10-11T11:24:36.527Z,8
2023-10-11T11:27:07.238Z,8
2023-10-11T11:29:38.285Z,5
2023-10-11T11:32:08.764Z,8
2023-10-11T11:34:39.705Z,9
2023-10-11T11:37:15.116Z,8
2023-10-11T11:39:41.037Z,8
2023-10-11T11:42:12.261Z,8
2023-10-11T11:44:43.181Z,8
2023-10-11T11:47:14.497Z,8
2023-10-11T11:49:45.541Z,8
2023-10-11T11:52:16.412Z,8
2023-10-11T11:54:47.038Z,8
2023-10-11T11:57:17.881Z,9
2023-10-11T11:59:49.088Z,8
2023-10-11T12:02:20.129Z,8
2023-10-11T12:04:51.445Z,8
2023-10-11T12:07:22.356Z,8
2023-10-11T12:12:23.997Z,12
2023-10-11T12:14:54.812Z,12
2023-10-11T12:17:25.486Z,8
2023-10-11T12:19:56.134Z,8
2023-10-11T12:22:27.112Z,11
2023-10-11T12:24:58.317Z,8
2023-10-11T12:27:29.307Z,9
2023-10-11T12:30:09.064Z,12
2023-10-11T12:32:31.131Z,10
2023-10-11T12:35:01.913Z,10
2023-10-11T12:37:33.244Z,12
2023-10-11T12:40:03.426Z,9
2023-10-11T12:42:34.156Z,8
2023-10-11T12:45:04.391Z,8
2023-10-11T12:47:34.786Z,11
2023-10-11T12:50:05.527Z,27
2023-10-11T12:52:36.547Z,16
2023-10-11T12:55:07.342Z,9
2023-10-11T12:57:40.970Z,8
2023-10-11T13:00:11.698Z,8
2023-10-11T13:02:42.844Z,6
2023-10-11T13:05:13.120Z,5
2023-10-11T13:07:44.465Z,8
2023-10-11T13:10:15.628Z,8
2023-10-11T13:12:46.704Z,8
2023-10-11T13:15:19.865Z,12
2023-10-11T13:17:48.911Z,12
2023-10-11T13:20:19.844Z,12
2023-10-11T13:22:50.822Z,11
2023-10-11T13:25:30.663Z,8
2023-10-11T13:27:52.036Z,10
2023-10-11T13:30:22.959Z,8
2023-10-11T13:32:53.934Z,8
2023-10-11T13:35:24.567Z,8
2023-10-11T13:37:55.090Z,4
2023-10-11T13:40:25.508Z,8
2023-10-11T13:42:56.075Z,8
2023-10-11T13:45:27.270Z,8
2023-10-11T13:47:57.965Z,8
2023-10-11T13:50:29.189Z,8
2023-10-11T13:53:00.071Z,8
2023-10-11T13:55:31.052Z,8
2023-10-11T13:58:01.564Z,8
2023-10-11T14:00:32.268Z,8
2023-10-11T14:03:02.912Z,8
2023-10-11T14:05:33.033Z,8
2023-10-11T14:08:03.486Z,5
2023-10-11T14:10:34.433Z,8
2023-10-11T14:13:05.893Z,8
2023-10-11T14:15:37.130Z,12
2023-10-11T14:18:07.877Z,8
2023-10-11T14:20:38.864Z,12
2023-10-11T14:23:09.937Z,8
2023-10-11T14:25:40.880Z,10
2023-10-11T14:28:11.811Z,12
2023-10-11T14:30:42.926Z,8
2023-10-11T14:33:13.910Z,8
2023-10-11T14:35:44.220Z,12
2023-10-11T14:38:15.219Z,8
2023-10-11T14:40:45.906Z,8
2023-10-11T14:43:16.013Z,8
2023-10-11T14:45:47.057Z,8
2023-10-11T14:48:17.437Z,10
2023-10-11T14:50:48.288Z,8
2023-10-11T14:53:18.877Z,8
2023-10-11T14:55:49.010Z,8
2023-10-11T14:58:19.201Z,16
2023-10-11T15:00:51.999Z,16
2023-10-11T15:03:22.981Z,8
2023-10-11T15:05:53.358Z,11
2023-10-11T15:08:23.914Z,8
2023-10-11T15:10:54.726Z,8
2023-10-11T15:13:25.449Z,12
2023-10-11T15:15:56.271Z,8
2023-10-11T15:18:26.293Z,8
2023-10-11T15:20:57.033Z,8
2023-10-11T15:23:27.621Z,8
2023-10-11T15:25:58.462Z,8
2023-10-11T15:28:29.854Z,8
2023-10-11T15:30:59.135Z,8
2023-10-11T15:33:29.653Z,8
2023-10-11T15:36:00.983Z,12
2023-10-11T15:38:31.880Z,8
2023-10-11T15:41:02.733Z,12
2023-10-11T15:43:34.262Z,20
2023-10-11T15:46:04.505Z,12
2023-10-11T15:48:34.941Z,11
2023-10-11T15:51:05.562Z,12
2023-10-11T15:53:35.926Z,12
2023-10-11T15:56:06.350Z,12
2023-10-11T15:58:37.246Z,12
2023-10-11T16:01:07.729Z,12
2023-10-11T16:03:38.022Z,12
2023-10-11T16:06:08.446Z,11
2023-10-11T16:08:38.816Z,12
2023-10-11T16:11:09.220Z,8
2023-10-11T16:13:39.549Z,12
2023-10-11T16:16:09.772Z,12
2023-10-11T16:18:40.210Z,11
2023-10-11T16:21:11.005Z,8
2023-10-11T16:23:42.017Z,8
2023-10-11T16:26:12.650Z,8
2023-10-11T16:28:42.720Z,8
2023-10-11T16:31:13.414Z,8
2023-10-11T16:33:43.646Z,8
2023-10-11T16:36:14.813Z,8
2023-10-11T16:38:45.838Z,12
2023-10-11T16:41:16.578Z,12
2023-10-11T16:43:47.376Z,16
2023-10-11T16:46:30.350Z,12
2023-10-11T16:48:48.062Z,12
2023-10-11T16:51:19.922Z,12
2023-10-11T16:53:48.636Z,12
2023-10-11T16:56:19.333Z,12
2023-10-11T16:58:50.135Z,15
2023-10-11T17:01:20.494Z,20
2023-10-11T17:03:51.105Z,14
2023-10-11T17:06:21.778Z,12
2023-10-11T17:08:52.619Z,12
2023-10-11T17:11:23.292Z,8
2023-10-11T17:13:53.808Z,10
2023-10-11T17:16:24.622Z,14
2023-10-11T17:18:55.409Z,12
2023-10-11T17:21:26.323Z,12
2023-10-11T17:23:56.813Z,12
2023-10-11T17:26:27.498Z,17
2023-10-11T17:28:58.387Z,14
2023-10-11T17:31:28.907Z,14
2023-10-11T17:34:02.715Z,12
2023-10-11T17:36:33.942Z,16
2023-10-11T17:39:04.648Z,19
2023-10-11T17:41:37.447Z,12
2023-10-11T17:44:06.301Z,12
2023-10-11T17:46:37.257Z,9
2023-10-11T17:49:08.053Z,12
2023-10-11T17:51:38.992Z,16
2023-10-11T17:54:07.837Z,12
2023-10-11T17:56:38.654Z,12
2023-10-11T17:59:09.348Z,12
2023-10-11T18:01:38.133Z,9
2023-10-11T18:04:09.287Z,12
2023-10-11T18:06:39.744Z,12
2023-10-11T18:09:10.519Z,12
2023-10-11T18:11:42.568Z,20
2023-10-11T18:14:13.481Z,16
2023-10-11T18:16:44.252Z,12
2023-10-11T18:19:15.187Z,8
2023-10-11T18:21:45.935Z,12
2023-10-11T18:24:16.860Z,8
2023-10-11T18:26:47.719Z,12
2023-10-11T18:29:18.560Z,12
2023-10-11T18:31:49.466Z,32
2023-10-11T18:34:20.907Z,8
2023-10-11T18:36:52.254Z,12
2023-10-11T18:39:23.269Z,8
2023-10-11T18:41:55.110Z,12
2023-10-11T18:44:25.974Z,8
2023-10-11T18:46:56.742Z,10
2023-10-11T18:49:27.377Z,12
2023-10-11T18:51:58.138Z,8
2023-10-11T18:54:29.046Z,12
2023-10-11T18:56:59.698Z,12
2023-10-11T18:59:30.804Z,10
2023-10-11T19:02:01.479Z,12
2023-10-11T19:04:32.248Z,12
2023-10-11T19:07:03.061Z,12
2023-10-11T19:09:34.394Z,12
2023-10-11T19:12:05.150Z,20
2023-10-11T19:14:35.842Z,12
2023-10-11T19:17:06.829Z,12
2023-10-11T19:19:37.370Z,14
2023-10-11T19:22:08.208Z,8
2023-10-11T19:24:39.050Z,12
2023-10-11T19:27:09.487Z,12
2023-10-11T19:29:39.703Z,16
2023-10-11T19:32:10.725Z,12
2023-10-11T19:34:41.736Z,12
2023-10-11T19:37:12.648Z,9
2023-10-11T19:39:43.158Z,12
2023-10-11T19:42:13.898Z,10
2023-10-11T19:44:44.761Z,8
2023-10-11T19:49:48.211Z,12
2023-10-11T19:52:20.605Z,12
2023-10-11T19:54:51.643Z,8
2023-10-11T19:57:22.414Z,12
2023-10-11T19:59:53.929Z,12
2023-10-11T20:02:23.404Z,11
2023-10-11T20:04:55.664Z,8
2023-10-11T20:07:27.227Z,8
2023-10-11T20:09:58.144Z,12
2023-10-11T20:12:28.764Z,8
2023-10-11T20:14:59.911Z,8
2023-10-11T20:17:35.364Z,8
2023-10-11T20:20:05.730Z,9
2023-10-11T20:22:34.528Z,9
2023-10-11T20:25:05.241Z,12
2023-10-11T20:27:34.073Z,13
2023-10-11T20:30:04.877Z,12
2023-10-11T20:32:35.910Z,14
2023-10-11T20:35:06.902Z,13
2023-10-11T20:37:35.731Z,12
2023-10-11T20:40:07.277Z,12
2023-10-11T20:42:38.068Z,12
2023-10-11T20:45:08.905Z,16
2023-10-11T20:47:39.884Z,12
2023-10-11T20:50:10.649Z,10
2023-10-11T20:52:41.505Z,9
2023-10-11T20:55:12.434Z,12
2023-10-11T20:57:43.214Z,8
2023-10-11T21:00:14.616Z,12
2023-10-11T21:02:45.090Z,12
2023-10-11T21:05:15.972Z,8
2023-10-11T21:07:47.184Z,8
2023-10-11T21:10:18.356Z,8
2023-10-11T21:12:47.118Z,12
2023-10-11T21:15:18.068Z,12
2023-10-11T21:17:48.806Z,12
2023-10-11T21:20:17.302Z,9
2023-10-11T21:22:48.196Z,8
2023-10-11T21:25:19.443Z,8
2023-10-11T21:27:50.518Z,8
2023-10-11T21:30:20.778Z,8
2023-10-11T21:32:51.243Z,8
2023-10-11T21:35:22.079Z,8
2023-10-11T21:37:52.958Z,8
2023-10-11T21:40:24.051Z,8
2023-10-11T21:42:53.246Z,11
2023-10-11T21:45:22.170Z,7
2023-10-11T21:47:52.562Z,5
2023-10-11T21:50:24.515Z,8
2023-10-11T21:52:55.291Z,8
2023-10-11T21:55:26.222Z,8
2023-10-11T21:57:57.166Z,8
2023-10-11T22:00:29.438Z,10
2023-10-11T22:03:00.658Z,8
2023-10-11T22:05:29.782Z,8
2023-10-11T22:08:00.311Z,8
2023-10-11T22:10:31.330Z,8
2023-10-11T22:13:02.159Z,4
2023-10-11T22:15:33.416Z,8
2023-10-11T22:18:04.775Z,8
2023-10-11T22:20:35.852Z,4
2023-10-11T22:23:07.080Z,8
2023-10-11T22:25:37.779Z,8
2023-10-11T22:28:08.664Z,6
2023-10-11T22:30:39.056Z,8
2023-10-11T22:33:10.231Z,8
2023-10-11T22:35:40.641Z,4
2023-10-11T22:38:11.043Z,8
2023-10-11T22:40:41.041Z,5
2023-10-11T22:43:26.143Z,8
2023-10-11T22:45:42.265Z,8
2023-10-11T22:48:11.199Z,8
2023-10-11T22:50:41.943Z,7
2023-10-11T22:53:12.530Z,7
2023-10-11T22:55:42.994Z,8
2023-10-11T22:58:12.081Z,8
2023-10-11T23:00:42.434Z,8
2023-10-11T23:03:13.174Z,8
2023-10-11T23:05:43.207Z,8
2023-10-11T23:08:13.912Z,8
2023-10-11T23:10:44.994Z,8
2023-10-11T23:13:16.415Z,8
2023-10-11T23:15:49.399Z,8
2023-10-11T23:18:18.419Z,8
2023-10-11T23:20:49.616Z,8
2023-10-11T23:23:20.412Z,6
2023-10-11T23:25:51.540Z,8
2023-10-11T23:28:23.498Z,8
2023-10-11T23:30:53.825Z,8
2023-10-11T23:33:24.597Z,8
2023-10-11T23:35:55.137Z,8
2023-10-11T23:38:25.560Z,8
2023-10-11T23:40:56.898Z,4
2023-10-11T23:43:27.864Z,8
2023-10-11T23:45:58.600Z,8
2023-10-11T23:48:29.450Z,6
2023-10-11T23:51:01.079Z,8
2023-10-11T23:53:30.364Z,8
2023-10-11T23:56:00.670Z,4
2023-10-11T23:58:31.764Z,4
